Queen Of Cowichan — CZ4990 — position and weather

sailwx.info

Track history (hours):
 
Tides and Currents Weather Stations Pressure Air Temp Water Temp Dewpoint Dewpoint Depression Visibility Wind Speed Wind Dir Waves Ship Positions

Queen Of Cowichan

Last reported at 2014-Dec-22 14:21 UTC. Time now 2014-Dec-22 16:17 UTC.
Position N 49°12' W 123°57'.

Length 139 m; draft 5.5 m.

Type: Passenger vessel. MMSI: 316001251.

Date/timePositionNaut miles runAvg speedWind from/ knotsBaromVisibWave heightAir tempDewpointWater temp
2014-Dec-22 14:21N 49°12' W 123°57'0 0.0
2014-Dec-22 12:21N 49°12' W 123°57'0 0.0
2014-Dec-22 11:33N 49°12' W 123°57'0 0.0
2014-Dec-22 08:33N 49°12' W 123°57'0 0.0
2014-Dec-22 07:21N 49°12' W 123°57'0 0.0
2014-Dec-22 03:21N 49°12' W 123°57'0 0.0
2014-Dec-22 02:33N 49°12' W 123°57'4 1.2
2014-Dec-21 23:34N 49°14' W 123°53'2019.9
2014-Dec-21 22:34N 49°19' W 123°24'6 5.8
2014-Dec-21 21:33N 49°23' W 123°17'1918.7
2014-Dec-21 20:33N 49°15' W 123°43'10 9.6
2014-Dec-21 19:30N 49°12' W 123°57'0 0.0
2014-Dec-21 13:11N 49°12' W 123°57'0 0.0
2014-Dec-21 12:11N 49°12' W 123°57'0 0.0
2014-Dec-21 10:17N 49°12' W 123°57'0 0.0
2014-Dec-21 09:23N 49°12' W 123°57'0 0.0
2014-Dec-21 07:25N 49°12' W 123°57'1416.5
2014-Dec-21 06:34N 49°17' W 123°37'1512.8
2014-Dec-21 05:24N 49°23' W 123°16'1315.7
2014-Dec-21 04:33N 49°17' W 123°35'1614.7
2014-Dec-21 03:29N 49°12' W 123°57'7 7.9
2014-Dec-21 02:33N 49°15' W 123°47'1919.3
2014-Dec-21 01:34N 49°21' W 123°19'2 2.2
2014-Dec-21 00:34N 49°20' W 123°21'1919.4
2014-Dec-20 23:33N 49°15' W 123°50'4 4.3
2014-Dec-20 22:33N 49°13' W 123°56'2019.8
2014-Dec-20 21:34N 49°18' W 123°27'8 8.1
2014-Dec-20 20:33N 49°23' W 123°16'1515.1
2014-Dec-20 19:34N 49°16' W 123°37'1413.5
2014-Dec-20 18:31N 49°12' W 123°57'1111.7
2014-Dec-20 17:33N 49°17' W 123°42'1812.4
2014-Dec-20 16:07N 49°23' W 123°16'916.2
2014-Dec-20 15:33N 49°18' W 123°28'1919.3
2014-Dec-20 14:33N 49°12' W 123°57'1 0.7
2014-Dec-20 13:21N 49°12' W 123°57'0 0.0
2014-Dec-20 12:27N 49°12' W 123°57'0 0.0
2014-Dec-20 11:33N 49°12' W 123°57'0 0.0
2014-Dec-20 10:33N 49°12' W 123°57'0 0.0
2014-Dec-20 09:27N 49°12' W 123°57'0 0.0
2014-Dec-20 08:33N 49°12' W 123°57'0 0.0
2014-Dec-20 07:27N 49°12' W 123°57'1213.7
2014-Dec-20 06:34N 49°17' W 123°40'1712.0
2014-Dec-20 05:11N 49°23' W 123°16'1015.5
2014-Dec-20 04:34N 49°18' W 123°29'1918.7
2014-Dec-20 03:31N 49°12' W 123°57'5 5.7
2014-Dec-20 02:33N 49°15' W 123°50'1919.1
2014-Dec-20 01:34N 49°20' W 123°22'5 5.1
2014-Dec-20 00:33N 49°23' W 123°17'1918.7
2014-Dec-19 23:33N 49°15' W 123°43'1010.3
2014-Dec-19 22:33N 49°12' W 123°57'1313.3
2014-Dec-19 21:33N 49°17' W 123°39'1611.2
2014-Dec-19 20:09N 49°23' W 123°16'1017.0
2014-Dec-19 19:34N 49°18' W 123°30'1918.6
2014-Dec-19 18:32N 49°12' W 123°57'1010.2
2014-Dec-19 17:34N 49°16' W 123°43'1919.0
2014-Dec-19 16:33N 49°23' W 123°16'9 9.1
2014-Dec-19 15:33N 49°18' W 123°28'2019.8
2014-Dec-19 14:33N 49°12' W 123°57'1 0.1
2014-Dec-19 10:03N 49°12' W 123°57'0 0.0
2014-Dec-19 09:21N 49°12' W 123°57'0 0.0
2014-Dec-19 05:27N 49°12' W 123°57'0 0.0
2014-Dec-19 04:27N 49°12' W 123°57'8 4.0
2014-Dec-19 02:33N 49°16' W 123°48'1918.6
2014-Dec-19 01:33N 49°25' W 123°23'4 4.2
2014-Dec-19 00:34N 49°23' W 123°17'1918.7
2014-Dec-18 23:33N 49°15' W 123°43'10 8.3
2014-Dec-18 22:23N 49°12' W 123°57'1214.5
2014-Dec-18 21:34N 49°17' W 123°41'1711.8
2014-Dec-18 20:06N 49°23' W 123°16'1017.9
2014-Dec-18 19:33N 49°17' W 123°29'1913.3
2014-Dec-18 18:06N 49°12' W 123°57'1017.7
2014-Dec-18 17:34N 49°16' W 123°44'1919.3
2014-Dec-18 16:33N 49°23' W 123°17'9 8.9
2014-Dec-18 15:34N 49°18' W 123°27'2019.7
2014-Dec-18 14:33N 49°12' W 123°57'0 0.0
2014-Dec-18 02:33N 49°12' W 123°56'1919.5
2014-Dec-18 01:34N 49°19' W 123°27'8 8.3
2014-Dec-18 00:34N 49°23' W 123°17'1918.7
2014-Dec-17 23:34N 49°15' W 123°43'10 9.9
2014-Dec-17 22:33N 49°12' W 123°57'1313.5
2014-Dec-17 21:33N 49°17' W 123°39'1611.6
2014-Dec-17 20:12N 49°23' W 123°16'1116.6
2014-Dec-17 19:34N 49°18' W 123°31'1816.5
2014-Dec-17 18:27N 49°12' W 123°57'1011.4
2014-Dec-17 17:34N 49°16' W 123°43'1918.9
2014-Dec-17 16:34N 49°23' W 123°16'9 9.0
2014-Dec-17 15:34N 49°18' W 123°28'2019.9
2014-Dec-17 14:33N 49°12' W 123°57'1 0.1
2014-Dec-17 09:23N 49°12' W 123°57'0 0.0
2014-Dec-17 08:23N 49°12' W 123°57'0 0.0
2014-Dec-17 06:23N 49°12' W 123°57'0 0.0
2014-Dec-17 05:17N 49°12' W 123°57'0 0.0
2014-Dec-17 03:11N 49°12' W 123°57'5 7.3
2014-Dec-17 02:33N 49°14' W 123°51'1919.2
2014-Dec-17 01:34N 49°20' W 123°23'5 5.2
2014-Dec-17 00:33N 49°23' W 123°17'1818.4
2014-Dec-16 23:33N 49°15' W 123°43'1010.1
2014-Dec-16 22:33N 49°12' W 123°57'1110.7
2014-Dec-16 21:33N 49°16' W 123°42'1812.9
2014-Dec-16 20:09N 49°23' W 123°16'915.5
2014-Dec-16 19:33N 49°18' W 123°28'2019.7
2014-Dec-16 18:33N 49°12' W 123°57'9 9.4
2014-Dec-16 17:34N 49°15' W 123°44'1919.3
2014-Dec-16 16:33N 49°23' W 123°17'9 9.0
2014-Dec-16 15:33N 49°18' W 123°28'2019.8
2014-Dec-16 14:34N 49°12' W 123°57'1 0.3
2014-Dec-16 12:27N 49°12' W 123°57'0 0.0
2014-Dec-16 11:30N 49°12' W 123°57'0 0.0
2014-Dec-16 09:06N 49°12' W 123°57'0 0.0
2014-Dec-16 08:24N 49°12' W 123°57'0 0.0
2014-Dec-16 07:06N 49°12' W 123°57'0 0.0
2014-Dec-16 06:30N 49°12' W 123°57'0 0.0
2014-Dec-16 04:14N 49°12' W 123°57'6 3.4
2014-Dec-16 02:33N 49°14' W 123°50'1918.8
2014-Dec-16 01:33N 49°20' W 123°22'4 3.5
2014-Dec-16 00:31N 49°22' W 123°18'1818.3
2014-Dec-15 23:33N 49°15' W 123°43'10 9.9
2014-Dec-15 22:33N 49°12' W 123°57'10 9.9
2014-Dec-15 21:33N 49°15' W 123°44'1919.3
2014-Dec-15 20:33N 49°23' W 123°16'9 9.1
2014-Dec-15 19:34N 49°18' W 123°28'2019.6
2014-Dec-15 18:33N 49°12' W 123°57'9 9.3
2014-Dec-15 17:33N 49°16' W 123°44'1919.1
2014-Dec-15 16:33N 49°23' W 123°16'9 9.3
2014-Dec-15 15:33N 49°18' W 123°28'1919.4
2014-Dec-15 14:34N 49°12' W 123°57'1 0.5
2014-Dec-15 13:10N 49°12' W 123°57'0 0.0
2014-Dec-15 07:22N 49°12' W 123°57'4 5.0
2014-Dec-15 06:34N 49°14' W 123°52'2020.1
2014-Dec-15 05:34N 49°20' W 123°23'1 1.5
2014-Dec-15 04:33N 49°20' W 123°21'1919.3
2014-Dec-15 03:33N 49°14' W 123°49'4 3.6
2014-Dec-15 02:34N 49°13' W 123°54'2020.2
2014-Dec-15 01:34N 49°19' W 123°24'6 6.0
2014-Dec-15 00:33N 49°23' W 123°17'1918.7
2014-Dec-14 23:33N 49°15' W 123°43'10 9.7
2014-Dec-14 22:33N 49°12' W 123°57'1413.7
2014-Dec-14 21:33N 49°17' W 123°38'1511.9
2014-Dec-14 20:17N 49°23' W 123°16'1114.8
2014-Dec-14 19:34N 49°17' W 123°30'1816.9
2014-Dec-14 18:28N 49°12' W 123°57'1011.0
2014-Dec-14 17:33N 49°16' W 123°43'1919.0
2014-Dec-14 16:34N 49°23' W 123°16'9 9.3
2014-Dec-14 15:33N 49°17' W 123°28'2019.8
2014-Dec-14 14:33N 49°12' W 123°57'1 0.1
2014-Dec-14 09:32N 49°12' W 123°57'1 0.5
2014-Dec-14 06:33N 49°13' W 123°56'2020.3
2014-Dec-14 05:33N 49°19' W 123°26'7 6.8
2014-Dec-14 04:33N 49°23' W 123°18'1918.9
2014-Dec-14 03:33N 49°15' W 123°44'9 8.7
2014-Dec-14 02:33N 49°12' W 123°57'2020.4
2014-Dec-14 01:33N 49°18' W 123°27'8 7.9
2014-Dec-14 00:33N 49°23' W 123°17'1918.6
2014-Dec-13 23:33N 49°15' W 123°43'10 7.8
2014-Dec-13 22:16N 49°12' W 123°57'1318.0
2014-Dec-13 21:34N 49°17' W 123°39'1612.4
2014-Dec-13 20:16N 49°23' W 123°16'1216.2
2014-Dec-13 19:33N 49°17' W 123°31'1813.3
2014-Dec-13 18:14N 49°12' W 123°57'1014.4
2014-Dec-13 17:33N 49°16' W 123°44'1919.3
2014-Dec-13 16:34N 49°23' W 123°17'9 8.8
2014-Dec-13 15:33N 49°18' W 123°27'2019.8
2014-Dec-13 14:33N 49°12' W 123°57'1 0.2
2014-Dec-13 10:06N 49°12' W 123°57'0 0.0
2014-Dec-13 07:13N 49°12' W 123°57'1116.8
2014-Dec-13 06:33N 49°16' W 123°42'1814.7
2014-Dec-13 05:21N 49°23' W 123°16'1215.8
2014-Dec-13 04:33N 49°17' W 123°33'1715.2
2014-Dec-13 03:27N 49°12' W 123°57'1314.6
2014-Dec-13 02:34N 49°17' W 123°39'1611.4
2014-Dec-13 01:10N 49°23' W 123°16'1015.7
2014-Dec-13 00:34N 49°18' W 123°29'2019.2
2014-Dec-12 23:32N 49°12' W 123°57'8 7.7
2014-Dec-12 22:33N 49°15' W 123°47'2019.7
2014-Dec-12 21:33N 49°22' W 123°19'2 1.4
2014-Dec-12 20:17N 49°23' W 123°16'1115.5
2014-Dec-12 19:33N 49°17' W 123°31'1815.0
2014-Dec-12 18:22N 49°12' W 123°57'1113.6
2014-Dec-12 17:33N 49°16' W 123°42'1813.3
2014-Dec-12 16:13N 49°23' W 123°16'914.2
2014-Dec-12 15:33N 49°18' W 123°28'1919.2
2014-Dec-12 14:33N 49°12' W 123°57'  
Track history (hours):
 
Tides and Currents Weather Stations Pressure Air Temp Water Temp Dewpoint Dewpoint Depression Visibility Wind Speed Wind Dir Waves Ship Positions

Queen Of Cowichan

Last reported at 2014-Dec-22 14:21 UTC. Time now 2014-Dec-22 16:17 UTC.
Position N 49°12' W 123°57'.

Length 139 m; draft 5.5 m.

Type: Passenger vessel. MMSI: 316001251.

Date/timePositionNaut miles runAvg speedWind from/ knotsBaromVisibWave heightAir tempDewpointWater temp
2014-Dec-22 14:21N 49°12' W 123°57'0 0.0
2014-Dec-22 12:21N 49°12' W 123°57'0 0.0
2014-Dec-22 11:33N 49°12' W 123°57'0 0.0
2014-Dec-22 08:33N 49°12' W 123°57'0 0.0
2014-Dec-22 07:21N 49°12' W 123°57'0 0.0
2014-Dec-22 03:21N 49°12' W 123°57'0 0.0
2014-Dec-22 02:33N 49°12' W 123°57'4 1.2
2014-Dec-21 23:34N 49°14' W 123°53'2019.9
2014-Dec-21 22:34N 49°19' W 123°24'6 5.8
2014-Dec-21 21:33N 49°23' W 123°17'1918.7
2014-Dec-21 20:33N 49°15' W 123°43'10 9.6
2014-Dec-21 19:30N 49°12' W 123°57'0 0.0
2014-Dec-21 13:11N 49°12' W 123°57'0 0.0
2014-Dec-21 12:11N 49°12' W 123°57'0 0.0
2014-Dec-21 10:17N 49°12' W 123°57'0 0.0
2014-Dec-21 09:23N 49°12' W 123°57'0 0.0
2014-Dec-21 07:25N 49°12' W 123°57'1416.5
2014-Dec-21 06:34N 49°17' W 123°37'1512.8
2014-Dec-21 05:24N 49°23' W 123°16'1315.7
2014-Dec-21 04:33N 49°17' W 123°35'1614.7
2014-Dec-21 03:29N 49°12' W 123°57'7 7.9
2014-Dec-21 02:33N 49°15' W 123°47'1919.3
2014-Dec-21 01:34N 49°21' W 123°19'2 2.2
2014-Dec-21 00:34N 49°20' W 123°21'1919.4
2014-Dec-20 23:33N 49°15' W 123°50'4 4.3
2014-Dec-20 22:33N 49°13' W 123°56'2019.8
2014-Dec-20 21:34N 49°18' W 123°27'8 8.1
2014-Dec-20 20:33N 49°23' W 123°16'1515.1
2014-Dec-20 19:34N 49°16' W 123°37'1413.5
2014-Dec-20 18:31N 49°12' W 123°57'1111.7
2014-Dec-20 17:33N 49°17' W 123°42'1812.4
2014-Dec-20 16:07N 49°23' W 123°16'916.2
2014-Dec-20 15:33N 49°18' W 123°28'1919.3
2014-Dec-20 14:33N 49°12' W 123°57'1 0.7
2014-Dec-20 13:21N 49°12' W 123°57'0 0.0
2014-Dec-20 12:27N 49°12' W 123°57'0 0.0
2014-Dec-20 11:33N 49°12' W 123°57'0 0.0
2014-Dec-20 10:33N 49°12' W 123°57'0 0.0
2014-Dec-20 09:27N 49°12' W 123°57'0 0.0
2014-Dec-20 08:33N 49°12' W 123°57'0 0.0
2014-Dec-20 07:27N 49°12' W 123°57'1213.7
2014-Dec-20 06:34N 49°17' W 123°40'1712.0
2014-Dec-20 05:11N 49°23' W 123°16'1015.5
2014-Dec-20 04:34N 49°18' W 123°29'1918.7
2014-Dec-20 03:31N 49°12' W 123°57'5 5.7
2014-Dec-20 02:33N 49°15' W 123°50'1919.1
2014-Dec-20 01:34N 49°20' W 123°22'5 5.1
2014-Dec-20 00:33N 49°23' W 123°17'1918.7
2014-Dec-19 23:33N 49°15' W 123°43'1010.3
2014-Dec-19 22:33N 49°12' W 123°57'1313.3
2014-Dec-19 21:33N 49°17' W 123°39'1611.2
2014-Dec-19 20:09N 49°23' W 123°16'1017.0
2014-Dec-19 19:34N 49°18' W 123°30'1918.6
2014-Dec-19 18:32N 49°12' W 123°57'1010.2
2014-Dec-19 17:34N 49°16' W 123°43'1919.0
2014-Dec-19 16:33N 49°23' W 123°16'9 9.1
2014-Dec-19 15:33N 49°18' W 123°28'2019.8
2014-Dec-19 14:33N 49°12' W 123°57'1 0.1
2014-Dec-19 10:03N 49°12' W 123°57'0 0.0
2014-Dec-19 09:21N 49°12' W 123°57'0 0.0
2014-Dec-19 05:27N 49°12' W 123°57'0 0.0
2014-Dec-19 04:27N 49°12' W 123°57'8 4.0
2014-Dec-19 02:33N 49°16' W 123°48'1918.6
2014-Dec-19 01:33N 49°25' W 123°23'4 4.2
2014-Dec-19 00:34N 49°23' W 123°17'1918.7
2014-Dec-18 23:33N 49°15' W 123°43'10 8.3
2014-Dec-18 22:23N 49°12' W 123°57'1214.5
2014-Dec-18 21:34N 49°17' W 123°41'1711.8
2014-Dec-18 20:06N 49°23' W 123°16'1017.9
2014-Dec-18 19:33N 49°17' W 123°29'1913.3
2014-Dec-18 18:06N 49°12' W 123°57'1017.7
2014-Dec-18 17:34N 49°16' W 123°44'1919.3
2014-Dec-18 16:33N 49°23' W 123°17'9 8.9
2014-Dec-18 15:34N 49°18' W 123°27'2019.7
2014-Dec-18 14:33N 49°12' W 123°57'0 0.0
2014-Dec-18 02:33N 49°12' W 123°56'1919.5
2014-Dec-18 01:34N 49°19' W 123°27'8 8.3
2014-Dec-18 00:34N 49°23' W 123°17'1918.7
2014-Dec-17 23:34N 49°15' W 123°43'10 9.9
2014-Dec-17 22:33N 49°12' W 123°57'1313.5
2014-Dec-17 21:33N 49°17' W 123°39'1611.6
2014-Dec-17 20:12N 49°23' W 123°16'1116.6
2014-Dec-17 19:34N 49°18' W 123°31'1816.5
2014-Dec-17 18:27N 49°12' W 123°57'1011.4
2014-Dec-17 17:34N 49°16' W 123°43'1918.9
2014-Dec-17 16:34N 49°23' W 123°16'9 9.0
2014-Dec-17 15:34N 49°18' W 123°28'2019.9
2014-Dec-17 14:33N 49°12' W 123°57'1 0.1
2014-Dec-17 09:23N 49°12' W 123°57'0 0.0
2014-Dec-17 08:23N 49°12' W 123°57'0 0.0
2014-Dec-17 06:23N 49°12' W 123°57'0 0.0
2014-Dec-17 05:17N 49°12' W 123°57'0 0.0
2014-Dec-17 03:11N 49°12' W 123°57'5 7.3
2014-Dec-17 02:33N 49°14' W 123°51'1919.2
2014-Dec-17 01:34N 49°20' W 123°23'5 5.2
2014-Dec-17 00:33N 49°23' W 123°17'1818.4
2014-Dec-16 23:33N 49°15' W 123°43'1010.1
2014-Dec-16 22:33N 49°12' W 123°57'1110.7
2014-Dec-16 21:33N 49°16' W 123°42'1812.9
2014-Dec-16 20:09N 49°23' W 123°16'915.5
2014-Dec-16 19:33N 49°18' W 123°28'2019.7
2014-Dec-16 18:33N 49°12' W 123°57'9 9.4
2014-Dec-16 17:34N 49°15' W 123°44'1919.3
2014-Dec-16 16:33N 49°23' W 123°17'9 9.0
2014-Dec-16 15:33N 49°18' W 123°28'2019.8
2014-Dec-16 14:34N 49°12' W 123°57'1 0.3
2014-Dec-16 12:27N 49°12' W 123°57'0 0.0
2014-Dec-16 11:30N 49°12' W 123°57'0 0.0
2014-Dec-16 09:06N 49°12' W 123°57'0 0.0
2014-Dec-16 08:24N 49°12' W 123°57'0 0.0
2014-Dec-16 07:06N 49°12' W 123°57'0 0.0
2014-Dec-16 06:30N 49°12' W 123°57'0 0.0
2014-Dec-16 04:14N 49°12' W 123°57'6 3.4
2014-Dec-16 02:33N 49°14' W 123°50'1918.8
2014-Dec-16 01:33N 49°20' W 123°22'4 3.5
2014-Dec-16 00:31N 49°22' W 123°18'1818.3
2014-Dec-15 23:33N 49°15' W 123°43'10 9.9
2014-Dec-15 22:33N 49°12' W 123°57'10 9.9
2014-Dec-15 21:33N 49°15' W 123°44'1919.3
2014-Dec-15 20:33N 49°23' W 123°16'9 9.1
2014-Dec-15 19:34N 49°18' W 123°28'2019.6
2014-Dec-15 18:33N 49°12' W 123°57'9 9.3
2014-Dec-15 17:33N 49°16' W 123°44'1919.1
2014-Dec-15 16:33N 49°23' W 123°16'9 9.3
2014-Dec-15 15:33N 49°18' W 123°28'1919.4
2014-Dec-15 14:34N 49°12' W 123°57'1 0.5
2014-Dec-15 13:10N 49°12' W 123°57'0 0.0
2014-Dec-15 07:22N 49°12' W 123°57'4 5.0
2014-Dec-15 06:34N 49°14' W 123°52'2020.1
2014-Dec-15 05:34N 49°20' W 123°23'1 1.5
2014-Dec-15 04:33N 49°20' W 123°21'1919.3
2014-Dec-15 03:33N 49°14' W 123°49'4 3.6
2014-Dec-15 02:34N 49°13' W 123°54'2020.2
2014-Dec-15 01:34N 49°19' W 123°24'6 6.0
2014-Dec-15 00:33N 49°23' W 123°17'1918.7
2014-Dec-14 23:33N 49°15' W 123°43'10 9.7
2014-Dec-14 22:33N 49°12' W 123°57'1413.7
2014-Dec-14 21:33N 49°17' W 123°38'1511.9
2014-Dec-14 20:17N 49°23' W 123°16'1114.8
2014-Dec-14 19:34N 49°17' W 123°30'1816.9
2014-Dec-14 18:28N 49°12' W 123°57'1011.0
2014-Dec-14 17:33N 49°16' W 123°43'1919.0
2014-Dec-14 16:34N 49°23' W 123°16'9 9.3
2014-Dec-14 15:33N 49°17' W 123°28'2019.8
2014-Dec-14 14:33N 49°12' W 123°57'1 0.1
2014-Dec-14 09:32N 49°12' W 123°57'1 0.5
2014-Dec-14 06:33N 49°13' W 123°56'2020.3
2014-Dec-14 05:33N 49°19' W 123°26'7 6.8
2014-Dec-14 04:33N 49°23' W 123°18'1918.9
2014-Dec-14 03:33N 49°15' W 123°44'9 8.7
2014-Dec-14 02:33N 49°12' W 123°57'2020.4
2014-Dec-14 01:33N 49°18' W 123°27'8 7.9
2014-Dec-14 00:33N 49°23' W 123°17'1918.6
2014-Dec-13 23:33N 49°15' W 123°43'10 7.8
2014-Dec-13 22:16N 49°12' W 123°57'1318.0
2014-Dec-13 21:34N 49°17' W 123°39'1612.4
2014-Dec-13 20:16N 49°23' W 123°16'1216.2
2014-Dec-13 19:33N 49°17' W 123°31'1813.3
2014-Dec-13 18:14N 49°12' W 123°57'1014.4
2014-Dec-13 17:33N 49°16' W 123°44'1919.3
2014-Dec-13 16:34N 49°23' W 123°17'9 8.8
2014-Dec-13 15:33N 49°18' W 123°27'2019.8
2014-Dec-13 14:33N 49°12' W 123°57'1 0.2
2014-Dec-13 10:06N 49°12' W 123°57'0 0.0
2014-Dec-13 07:13N 49°12' W 123°57'1116.8
2014-Dec-13 06:33N 49°16' W 123°42'1814.7
2014-Dec-13 05:21N 49°23' W 123°16'1215.8
2014-Dec-13 04:33N 49°17' W 123°33'1715.2
2014-Dec-13 03:27N 49°12' W 123°57'1314.6
2014-Dec-13 02:34N 49°17' W 123°39'1611.4
2014-Dec-13 01:10N 49°23' W 123°16'1015.7
2014-Dec-13 00:34N 49°18' W 123°29'2019.2
2014-Dec-12 23:32N 49°12' W 123°57'8 7.7
2014-Dec-12 22:33N 49°15' W 123°47'2019.7
2014-Dec-12 21:33N 49°22' W 123°19'2 1.4
2014-Dec-12 20:17N 49°23' W 123°16'1115.5
2014-Dec-12 19:33N 49°17' W 123°31'1815.0
2014-Dec-12 18:22N 49°12' W 123°57'1113.6
2014-Dec-12 17:33N 49°16' W 123°42'1813.3
2014-Dec-12 16:13N 49°23' W 123°16'914.2
2014-Dec-12 15:33N 49°18' W 123°28'1919.2
2014-Dec-12 14:33N 49°12' W 123°57'  

Dump ship's entire track history